| Temperature (°F) | Max | Average | Min |
|---|---|---|---|
| Max Temperature | 70 | 57.68 | 43 |
| Avg Temperature | 58.97 | 50.8 | 35.55 |
| Min Temperature | 55 | 44.58 | 28 |
| Dew Point (°F) | Max | Average | Min |
|---|---|---|---|
| Dew Point | 59 | 47.22 | 27 |
| Precipitation (in) | Max | Average | Min | Sum |
|---|---|---|---|---|
| Precipitation | 0.00 | 0.00 | 0.00 | 0.00 |
| Snowdepth | 0.00 | 0.00 | 0.00 | 0.00 |
| Wind (mph) | Max | Average | Min |
|---|---|---|---|
| Wind | 29 | 6.67 | 0 |
| Gust Wind | 40 | 0.13 | 0 |
| Sea Level Pressure (in) | Max | Average | Min |
|---|---|---|---|
| Sea Level Pressure | 29.11 | 28.77 | 28.26 |
| Date | Temperature (°F) | Dew Point (°F) | Humidity (%) | Wind Speed (mph) | Pressure (in) | Precipitation (in) | ||||||||||
|---|---|---|---|---|---|---|---|---|---|---|---|---|---|---|---|---|
| Max | Avg | Min | Max | Avg | Min | Max | Avg | Min | Max | Avg | Min | Max | Avg | Min | ||
| 10/31/2014 | 55 | 48.7 | 45 | 50 | 45.2 | 41 | 100 | 88.4 | 77 | 8 | 3.9 | 1 | 29.0 | 29.0 | 29.0 | 0.00 |
| 10/30/2014 | 46 | 43.0 | 39 | 41 | 39.2 | 37 | 100 | 87.4 | 71 | 6 | 3.3 | 0 | 29.0 | 28.9 | 28.9 | 0.00 |
| 10/29/2014 | 43 | 37.2 | 28 | 39 | 34.4 | 27 | 100 | 90.2 | 81 | 9 | 6.2 | 2 | 28.9 | 28.8 | 28.8 | 0.00 |
| 10/28/2014 | 45 | 35.6 | 28 | 39 | 33.3 | 28 | 100 | 92.1 | 76 | 7 | 5.4 | 1 | 29.0 | 28.9 | 28.8 | 0.00 |
| 10/27/2014 | 46 | 41.6 | 36 | 41 | 37.3 | 34 | 100 | 85.9 | 71 | 8 | 4.9 | 2 | 29.1 | 29.1 | 29.0 | 0.00 |
| 10/26/2014 | 52 | 46.1 | 43 | 45 | 42.1 | 39 | 93 | 85.7 | 71 | 7 | 4.6 | 2 | 29.1 | 29.0 | 29.0 | 0.00 |
| 10/25/2014 | 45 | 41.3 | 36 | 41 | 38.7 | 34 | 100 | 91.1 | 81 | 8 | 4.6 | 0 | 29.0 | 28.9 | 28.9 | 0.00 |
| 10/24/2014 | 48 | 44.7 | 43 | 43 | 41.2 | 39 | 93 | 88.3 | 76 | 9 | 3.5 | 0 | 28.9 | 28.9 | 28.9 | 0.00 |
| 10/23/2014 | 52 | 48.1 | 43 | 48 | 45.2 | 41 | 100 | 90.1 | 76 | 21 | 13.3 | 5 | 28.9 | 28.7 | 28.5 | 0.00 |
| 10/22/2014 | 48 | 44.2 | 41 | 45 | 39.5 | 37 | 93 | 84.5 | 76 | 26 | 15.7 | 6 | 28.5 | 28.4 | 28.3 | 0.00 |
| 10/21/2014 | 59 | 52.0 | 45 | 50 | 46.4 | 43 | 94 | 82.2 | 55 | 29 | 10.9 | 3 | 28.7 | 28.5 | 28.3 | 0.00 |
| 10/20/2014 | 63 | 58.1 | 50 | 55 | 53.2 | 48 | 94 | 83.9 | 68 | 23 | 13.6 | 2 | 28.7 | 28.7 | 28.7 | 0.00 |
| 10/19/2014 | 66 | 51.7 | 41 | 57 | 48.5 | 41 | 100 | 89.3 | 64 | 20 | 6.2 | 0 | 29.0 | 28.9 | 28.7 | 0.00 |
| 10/18/2014 | 61 | 53.0 | 46 | 55 | 50.2 | 45 | 100 | 90.6 | 72 | 9 | 6.4 | 3 | 29.0 | 28.9 | 28.8 | 0.00 |
| 10/17/2014 | 59 | 54.8 | 52 | 55 | 52.5 | 50 | 100 | 91.8 | 82 | 15 | 10.2 | 5 | 28.8 | 28.6 | 28.5 | 0.00 |
| 10/16/2014 | 64 | 55.4 | 48 | 55 | 52.0 | 46 | 100 | 88.4 | 68 | 21 | 9.8 | 2 | 28.5 | 28.5 | 28.5 | 0.00 |
| 10/15/2014 | 61 | 52.2 | 46 | 54 | 50.0 | 46 | 100 | 92.9 | 72 | 12 | 5.1 | 0 | 28.5 | 28.5 | 28.5 | 0.00 |
| 10/14/2014 | 64 | 57.3 | 50 | 55 | 54.0 | 48 | 100 | 89.1 | 68 | 12 | 7.5 | 2 | 28.6 | 28.5 | 28.5 | 0.00 |
| 10/13/2014 | 66 | 56.6 | 50 | 57 | 53.8 | 48 | 100 | 91.0 | 73 | 8 | 4.0 | 0 | 28.6 | 28.6 | 28.5 | 0.00 |
| 10/12/2014 | 66 | 55.8 | 50 | 57 | 52.5 | 48 | 100 | 89.6 | 64 | 10 | 6.6 | 1 | 28.7 | 28.7 | 28.6 | 0.00 |
| 10/11/2014 | 61 | 57.3 | 55 | 57 | 54.8 | 54 | 100 | 91.5 | 82 | 10 | 5.1 | 2 | 28.7 | 28.7 | 28.6 | 0.00 |
| 10/10/2014 | 61 | 55.0 | 50 | 57 | 53.3 | 48 | 100 | 94.4 | 82 | 8 | 4.8 | 1 | 28.8 | 28.7 | 28.6 | 0.00 |
| 10/9/2014 | 70 | 57.8 | 46 | 57 | 53.2 | 46 | 100 | 86.0 | 64 | 15 | 6.2 | 1 | 28.6 | 28.6 | 28.6 | 0.00 |
| 10/8/2014 | 64 | 56.3 | 52 | 55 | 51.8 | 50 | 94 | 85.9 | 72 | 14 | 8.2 | 2 | 28.7 | 28.7 | 28.6 | 0.00 |
| 10/7/2014 | 61 | 50.9 | 41 | 50 | 46.5 | 41 | 100 | 85.7 | 67 | 12 | 6.3 | 0 | 28.7 | 28.6 | 28.6 | 0.00 |
| 10/6/2014 | 59 | 52.1 | 46 | 50 | 46.7 | 43 | 100 | 82.7 | 63 | 13 | 8.0 | 5 | 28.8 | 28.7 | 28.7 | 0.00 |
| 10/5/2014 | 57 | 51.9 | 46 | 50 | 48.2 | 45 | 100 | 88.1 | 72 | 13 | 6.7 | 2 | 28.8 | 28.8 | 28.8 | 0.00 |
| 10/4/2014 | 55 | 48.8 | 39 | 50 | 45.0 | 37 | 100 | 87.9 | 72 | 10 | 4.3 | 0 | 29.0 | 28.9 | 28.8 | 0.00 |
| 10/3/2014 | 61 | 51.6 | 43 | 52 | 47.7 | 43 | 100 | 87.6 | 68 | 7 | 3.0 | 0 | 29.1 | 29.0 | 29.0 | 0.00 |
| 10/2/2014 | 66 | 57.1 | 50 | 55 | 51.6 | 48 | 100 | 83.3 | 59 | 8 | 4.2 | 2 | 29.1 | 29.1 | 29.1 | 0.00 |
| 10/1/2014 | 64 | 59.0 | 54 | 59 | 56.0 | 52 | 100 | 90.7 | 77 | 8 | 4.2 | 0 | 29.0 | 29.0 | 29.0 | 0.00 |